Historyczne dane pomiarowe

Dodano dane terminowe – wersja testowa.

Dane z okresu 1951-2019

Wersja bazy: 1.34 [2019-03-16, lista zmian], aktualizacja planowana na 2019-04-15

Dane meteo z obszaru Polski uzyskane na podstawie danych udostępnionych przez Instytut Meteorologii i Gospodarki Wodnej – Państwowy Instytut Badawczy.

 

Wybierz Datę:    

       

TemperaturaWilgotnośćWiatrCiśnienieOpadyŚniegCzas trwania zjawisk
 Stacja t tx tn tng RH VA  wxwx mslp ppp RRR   cm mm wxwxwxwxwxwxwx
2019-07-03 15.0 20.2 7.9 5.2 54.5- 5.3 6.7---- 0.0------------
2019-07-02 18.9 24.8 12.9 10.5 57.0- 7.3 7.7---- 0.0------------
2019-07-01 24.7 33.3 17.9 14.5 62.8- 5.0 3.0---- 2.0------------
2019-06-30 25.5 34.8 12.4 17.5 47.3- 0.0 1.7---- 0.0------------
2019-06-29 19.2 27.3 8.9 6.7 57.3- 7.3 3.0---- 0.0------------
2019-06-28 17.9 25.2 10.4 8.6 68.5- 3.3 3.7---- 0.0------------
2019-06-27 21.7 31.9 17.4 18.5 66.5- 8.0 5.0---- 0.0------------
2019-06-26 27.8 35.3 18.4 17.0 53.8- 6.7 2.7---- 0.0------------
2019-06-25 22.5 30.3 11.4 9.0 54.8- 2.7 2.0---- 0.0------------
2019-06-24 20.6 28.3 10.9 8.6 61.5- 3.3 0.3---- 0.0------------
2019-06-23 18.7 25.3 9.9 7.6 60.8- 2.0 0.7---- 0.0------------
2019-06-22 19.9 25.3 14.4 13.0 66.3- 2.0 1.0---- 0.0------------
2019-06-21 21.9 28.8 15.9 15.0 80.5- 7.3 0.3---- 4.0------------
2019-06-20 24.0 29.3 16.9 14.5 69.3- 4.0 1.7---- 3.7------------
2019-06-19 21.5 27.8 13.9 12.5 68.0- 4.7 2.0---- 0.0------------
2019-06-18 19.5 25.8 10.4 9.0 63.0- 8.0 0.7---- 0.0------------
2019-06-17 18.8 23.3 13.4 14.5 73.3- 3.3 2.3---- 0.0------------
2019-06-16 22.0 27.5 18.4 19.0 76.0- 8.0 2.3---- 0.0------------
2019-06-15 23.6 29.8 16.4 15.0 72.5- 4.0 2.7---- 0.0------------
2019-06-14 22.1 27.8 16.4 15.5 81.5- 8.0 1.0---- 0.0------------
2019-06-13 24.3 32.8 19.4 18.9 68.3- 0.0 2.0---- 27.8------------
2019-06-12 26.0 32.3 17.9 15.3 54.0- 1.3 3.0---- 0.0------------
2019-06-11 26.5 32.8 18.4 17.0 54.5- 0.0 3.0---- 0.0------------
2019-06-10 20.8 28.8 10.4 12.5 59.8- 8.0 3.0---- 0.0------------
2019-06-09 19.5 25.2 11.4 9.0 58.3- 0.0 0.7---- 0.0------------
2019-06-08 21.7 29.2 14.4 12.5 76.8- 5.3 1.3---- 1.5------------
2019-06-07 22.1 27.3 15.4 14.5 67.0- 8.0 1.0---- 0.0------------
2019-06-06 22.1 27.8 15.4 13.0 64.8- 5.3 3.3---- 0.0------------
2019-06-05 22.4 28.2 13.9 12.0 62.8- 1.3 3.0---- 0.0------------
2019-06-04 21.1 28.3 10.4 9.0 59.8- 4.0 1.3---- 0.0------------
2019-06-03 19.4 26.2 9.9 8.1 56.0- 0.0 1.3---- 0.0------------
2019-06-02 20.6 26.3 12.9 11.0 71.3- 6.0 1.3---- 0.0------------
2019-06-01 17.9 23.3 11.4 9.0 77.5- 8.0 0.7---- 0.0------------
2019-05-31 15.3 22.8 4.4 1.9 63.5- 4.7 1.3---- 0.0------------
2019-05-30 12.1 18.3 2.4 0.5 68.8- 8.0 1.0---- 0.0------------
2019-05-29 12.9 16.9 9.9 11.5 82.3- 8.0 1.7---- 0.5------------
2019-05-28 18.0 24.3 14.9 14.5 85.5- 8.0 2.0---- 11.4------------
2019-05-27 19.1 25.3 11.9 9.5 65.0- 4.3 3.0---- 3.3------------
2019-05-26 14.6 19.3 8.4 6.2 69.3- 1.7 2.3---- 0.0------------
2019-05-25 16.0 22.8 8.9 6.2 66.8- 5.3 2.3---- 0.0------------
2019-05-24 15.9 21.8 8.9 7.6 69.5- 8.0 0.7---- 0.0------------
2019-05-23 16.7 22.3 12.4 11.5 84.0- 8.0 2.7---- 3.0------------
2019-05-22 15.9 19.8 9.4 9.0 77.8- 8.0 1.3---- 0.1------------
2019-05-21 17.6 23.3 11.9 10.0 80.3- 8.0 1.7---- 1.0------------
2019-05-20 19.2 25.8 13.4 10.5 77.0- 8.0 3.7---- 4.0------------
2019-05-19 17.7 21.8 12.9 11.0 88.5- 8.0 1.7---- 0.1------------
2019-05-18 16.3 21.8 10.9 9.0 92.5- 8.0 1.3---- 15.0------------
2019-05-17 17.2 21.8 13.4 14.0 83.8- 8.0 1.7---- 0.1------------
2019-05-16 14.9 17.8 11.4 11.0 91.3- 8.0 2.0---- 8.3------------
2019-05-15 9.9 12.0 6.9 7.4 95.0- 8.0 1.0---- 11.4------------
2019-05-14 7.0 8.5 4.9 5.7 96.0- 8.0 0.3---- 3.6------------
2019-05-13 8.3 12.0 5.9 5.7 90.8- 8.0 2.0---- 1.0------------
2019-05-12 13.5 21.3 8.4 4.3 74.8- 0.0 3.0---- 6.4------------
2019-05-11 13.2 18.8 6.4 3.8 75.8- 8.0 2.0---- 0.0------------
2019-05-10 11.9 14.4 8.4 7.6 82.5- 8.0 1.0---- 1.0------------
2019-05-09 12.1 18.8 5.4 3.3 49.0- 8.0 4.0---- 0.0------------
2019-05-08 8.2 15.4 -0.6 -4.0 58.0- 8.0 2.7---- 0.0------------
2019-05-07 8.4 14.9 0.4 -3.0 59.0- 1.0 1.7---- 0.0------------
2019-05-06 7.3 15.4 -2.1 -5.9 58.3- 8.0 1.3---- 0.0------------
2019-05-05 7.6 12.9 3.4 2.9 70.0- 8.0 1.7---- 0.0------------
2065.8 ms

 

Źródłem pochodzenia danych jest Instytut Meteorologii i Gospodarki Wodnej – Państwowy Instytut Badawczy. Dane Instytutu Meteorologii i Gospodarki Wodnej – Państwowego Instytutu Badawczego zostały przetworzone.

Dane źródłowe można odnaleźć na stronie https://dane.imgw.pl